sensor_id;sensor_type;location;lat;lon;timestamp;pressure;altitude;pressure_sealevel;temperature;humidity
48404;BME280;34202;52.536;6.042;2024-03-23T00:53:56;101101.88;;;7.13;100.00
48404;BME280;34202;52.536;6.042;2024-03-23T00:58:56;101095.85;;;7.07;100.00
48404;BME280;34202;52.536;6.042;2024-03-23T01:03:56;101093.10;;;7.02;100.00
48404;BME280;34202;52.536;6.042;2024-03-23T01:08:57;101088.11;;;6.96;100.00
48404;BME280;34202;52.536;6.042;2024-03-23T01:13:57;101079.65;;;6.90;100.00
48404;BME280;34202;52.536;6.042;2024-03-23T01:18:58;101070.48;;;6.84;100.00
48404;BME280;34202;52.536;6.042;2024-03-23T01:23:58;101062.77;;;6.80;100.00
48404;BME280;34202;52.536;6.042;2024-03-23T01:28:59;101058.69;;;6.75;100.00
48404;BME280;34202;52.536;6.042;2024-03-23T01:33:59;101053.56;;;6.71;100.00
48404;BME280;34202;52.536;6.042;2024-03-23T01:38:59;101047.70;;;6.65;100.00
48404;BME280;34202;52.536;6.042;2024-03-23T01:44:05;101040.42;;;6.58;100.00
48404;BME280;34202;52.536;6.042;2024-03-23T01:49:08;101045.58;;;6.50;100.00
48404;BME280;34202;52.536;6.042;2024-03-23T01:54:09;101036.55;;;6.42;100.00
48404;BME280;34202;52.536;6.042;2024-03-23T01:59:09;101030.49;;;6.36;100.00
48404;BME280;34202;52.536;6.042;2024-03-23T02:04:10;101019.77;;;6.28;100.00
48404;BME280;34202;52.536;6.042;2024-03-23T02:09:10;101009.21;;;6.22;100.00
48404;BME280;34202;52.536;6.042;2024-03-23T02:14:10;100996.88;;;6.13;100.00
48404;BME280;34202;52.536;6.042;2024-03-23T02:19:11;100998.08;;;6.07;100.00
48404;BME280;34202;52.536;6.042;2024-03-23T02:24:11;100996.39;;;6.02;100.00
48404;BME280;34202;52.536;6.042;2024-03-23T02:29:12;100996.27;;;5.97;100.00
48404;BME280;34202;52.536;6.042;2024-03-23T02:34:12;100985.51;;;5.90;100.00
48404;BME280;34202;52.536;6.042;2024-03-23T02:39:12;100984.98;;;5.84;100.00
48404;BME280;34202;52.536;6.042;2024-03-23T02:44:13;100983.08;;;5.77;100.00
48404;BME280;34202;52.536;6.042;2024-03-23T02:49:14;100981.02;;;5.72;100.00
48404;BME280;34202;52.536;6.042;2024-03-23T02:54:14;100981.02;;;5.66;100.00
48404;BME280;34202;52.536;6.042;2024-03-23T02:59:14;100977.16;;;5.58;100.00
48404;BME280;34202;52.536;6.042;2024-03-23T03:04:15;100971.66;;;5.53;100.00
48404;BME280;34202;52.536;6.042;2024-03-23T03:09:15;100968.90;;;5.47;100.00
48404;BME280;34202;52.536;6.042;2024-03-23T03:14:16;100965.33;;;5.43;100.00
48404;BME280;34202;52.536;6.042;2024-03-23T03:19:16;100961.23;;;5.39;100.00
48404;BME280;34202;52.536;6.042;2024-03-23T03:24:17;100958.52;;;5.35;100.00
48404;BME280;34202;52.536;6.042;2024-03-23T03:29:17;100958.80;;;5.32;100.00
48404;BME280;34202;52.536;6.042;2024-03-23T03:34:17;100960.56;;;5.28;100.00
48404;BME280;34202;52.536;6.042;2024-03-23T03:39:18;100962.33;;;5.23;100.00
48404;BME280;34202;52.536;6.042;2024-03-23T03:44:18;100965.50;;;5.20;100.00
48404;BME280;34202;52.536;6.042;2024-03-23T03:49:19;100956.55;;;5.15;100.00
48404;BME280;34202;52.536;6.042;2024-03-23T03:54:19;100947.12;;;5.11;100.00
48404;BME280;34202;52.536;6.042;2024-03-23T03:59:20;100942.83;;;5.06;100.00
48404;BME280;34202;52.536;6.042;2024-03-23T04:04:20;100937.53;;;5.02;100.00
48404;BME280;34202;52.536;6.042;2024-03-23T04:09:22;100932.27;;;4.99;100.00
48404;BME280;34202;52.536;6.042;2024-03-23T04:14:23;100934.06;;;4.96;100.00
48404;BME280;34202;52.536;6.042;2024-03-23T04:19:23;100936.44;;;4.95;100.00
48404;BME280;34202;52.536;6.042;2024-03-23T04:24:23;100930.49;;;4.92;100.00
48404;BME280;34202;52.536;6.042;2024-03-23T04:29:26;100924.73;;;4.90;100.00
48404;BME280;34202;52.536;6.042;2024-03-23T04:34:27;100921.58;;;4.88;100.00
48404;BME280;34202;52.536;6.042;2024-03-23T04:39:27;100915.30;;;4.86;100.00
48404;BME280;34202;52.536;6.042;2024-03-23T04:44:27;100914.02;;;4.83;100.00
48404;BME280;34202;52.536;6.042;2024-03-23T04:49:28;100911.13;;;4.79;100.00
48404;BME280;34202;52.536;6.042;2024-03-23T04:54:29;100909.74;;;4.74;100.00
48404;BME280;34202;52.536;6.042;2024-03-23T04:59:29;100904.91;;;4.69;100.00
48404;BME280;34202;52.536;6.042;2024-03-23T05:04:29;100905.28;;;4.63;100.00
48404;BME280;34202;52.536;6.042;2024-03-23T05:09:30;100902.23;;;4.60;100.00
48404;BME280;34202;52.536;6.042;2024-03-23T05:14:30;100902.66;;;4.57;100.00
48404;BME280;34202;52.536;6.042;2024-03-23T05:19:31;100899.09;;;4.53;100.00
48404;BME280;34202;52.536;6.042;2024-03-23T05:24:31;100901.75;;;4.50;100.00
48404;BME280;34202;52.536;6.042;2024-03-23T05:29:31;100903.73;;;4.48;100.00
48404;BME280;34202;52.536;6.042;2024-03-23T05:34:32;100895.01;;;4.44;100.00
48404;BME280;34202;52.536;6.042;2024-03-23T05:39:32;100891.17;;;4.43;100.00
48404;BME280;34202;52.536;6.042;2024-03-23T05:44:32;100896.49;;;4.42;100.00
48404;BME280;34202;52.536;6.042;2024-03-23T05:49:33;100897.01;;;4.42;100.00
48404;BME280;34202;52.536;6.042;2024-03-23T05:54:34;100897.27;;;4.44;100.00
48404;BME280;34202;52.536;6.042;2024-03-23T05:59:35;100894.20;;;4.45;100.00
48404;BME280;34202;52.536;6.042;2024-03-23T06:04:35;100891.47;;;4.47;100.00
48404;BME280;34202;52.536;6.042;2024-03-23T06:09:36;100887.86;;;4.47;100.00
48404;BME280;34202;52.536;6.042;2024-03-23T06:14:36;100889.92;;;4.47;100.00
48404;BME280;34202;52.536;6.042;2024-03-23T06:19:36;100895.26;;;4.47;100.00
48404;BME280;34202;52.536;6.042;2024-03-23T06:24:37;100893.17;;;4.46;100.00
48404;BME280;34202;52.536;6.042;2024-03-23T06:29:37;100891.09;;;4.45;100.00
48404;BME280;34202;52.536;6.042;2024-03-23T06:34:38;100900.10;;;4.47;100.00
48404;BME280;34202;52.536;6.042;2024-03-23T06:39:41;100898.68;;;4.51;100.00
48404;BME280;34202;52.536;6.042;2024-03-23T06:44:41;100893.39;;;4.58;100.00
48404;BME280;34202;52.536;6.042;2024-03-23T06:49:42;100886.49;;;4.69;100.00
48404;BME280;34202;52.536;6.042;2024-03-23T06:54:42;100884.41;;;4.80;100.00
48404;BME280;34202;52.536;6.042;2024-03-23T06:59:45;100880.42;;;4.96;100.00
48404;BME280;34202;52.536;6.042;2024-03-23T07:04:45;100884.57;;;5.08;100.00
48404;BME280;34202;52.536;6.042;2024-03-23T07:09:45;100880.23;;;5.13;100.00
48404;BME280;34202;52.536;6.042;2024-03-23T07:14:46;100884.19;;;5.18;100.00
48404;BME280;34202;52.536;6.042;2024-03-23T07:19:46;100892.16;;;5.20;100.00
48404;BME280;34202;52.536;6.042;2024-03-23T07:24:47;100901.38;;;5.22;100.00
48404;BME280;34202;52.536;6.042;2024-03-23T07:29:47;100905.40;;;5.24;100.00
48404;BME280;34202;52.536;6.042;2024-03-23T07:34:47;100890.95;;;5.26;100.00
48404;BME280;34202;52.536;6.042;2024-03-23T07:39:48;100894.30;;;5.28;100.00
48404;BME280;34202;52.536;6.042;2024-03-23T07:44:49;100893.56;;;5.32;100.00
48404;BME280;34202;52.536;6.042;2024-03-23T07:49:49;100893.35;;;5.37;100.00
48404;BME280;34202;52.536;6.042;2024-03-23T07:54:50;100899.27;;;5.39;100.00
48404;BME280;34202;52.536;6.042;2024-03-23T07:59:50;100907.48;;;5.36;100.00
48404;BME280;34202;52.536;6.042;2024-03-23T08:04:52;100904.02;;;5.31;100.00
48404;BME280;34202;52.536;6.042;2024-03-23T08:09:52;100895.86;;;5.29;100.00
48404;BME280;34202;52.536;6.042;2024-03-23T08:14:53;100899.55;;;5.31;100.00
48404;BME280;34202;52.536;6.042;2024-03-23T08:19:53;100897.09;;;5.35;100.00
48404;BME280;34202;52.536;6.042;2024-03-23T08:24:53;100901.13;;;5.37;100.00
48404;BME280;34202;52.536;6.042;2024-03-23T08:29:54;100902.63;;;5.41;100.00
48404;BME280;34202;52.536;6.042;2024-03-23T08:34:54;100895.29;;;5.45;100.00
48404;BME280;34202;52.536;6.042;2024-03-23T08:39:55;100891.09;;;5.49;100.00
48404;BME280;34202;52.536;6.042;2024-03-23T08:44:56;100882.01;;;5.51;100.00
48404;BME280;34202;52.536;6.042;2024-03-23T08:49:56;100882.33;;;5.56;100.00
48404;BME280;34202;52.536;6.042;2024-03-23T08:54:58;100882.67;;;5.69;100.00
48404;BME280;34202;52.536;6.042;2024-03-23T08:59:58;100878.28;;;5.86;100.00
48404;BME280;34202;52.536;6.042;2024-03-23T09:04:58;100869.17;;;6.06;100.00
48404;BME280;34202;52.536;6.042;2024-03-23T09:10:04;100860.73;;;6.28;100.00
48404;BME280;34202;52.536;6.042;2024-03-23T09:15:05;100861.95;;;6.50;100.00
48404;BME280;34202;52.536;6.042;2024-03-23T09:20:06;100854.21;;;6.67;100.00
48404;BME280;34202;52.536;6.042;2024-03-23T09:25:07;100857.20;;;6.83;100.00
48404;BME280;34202;52.536;6.042;2024-03-23T09:30:08;100861.30;;;6.98;100.00
48404;BME280;34202;52.536;6.042;2024-03-23T09:35:10;100864.86;;;7.03;100.00
48404;BME280;34202;52.536;6.042;2024-03-23T09:40:11;100860.70;;;7.02;100.00
48404;BME280;34202;52.536;6.042;2024-03-23T09:45:17;100848.30;;;7.05;100.00
48404;BME280;34202;52.536;6.042;2024-03-23T09:50:20;100849.09;;;7.18;100.00
48404;BME280;34202;52.536;6.042;2024-03-23T09:55:20;100846.83;;;7.26;100.00
48404;BME280;34202;52.536;6.042;2024-03-23T10:00:21;100844.35;;;7.31;100.00
48404;BME280;34202;52.536;6.042;2024-03-23T10:05:22;100841.98;;;7.34;100.00
48404;BME280;34202;52.536;6.042;2024-03-23T10:10:25;100850.98;;;7.35;100.00
48404;BME280;34202;52.536;6.042;2024-03-23T10:15:26;100848.89;;;7.42;100.00
48404;BME280;34202;52.536;6.042;2024-03-23T10:20:26;100838.73;;;7.54;100.00
48404;BME280;34202;52.536;6.042;2024-03-23T10:25:27;100833.27;;;7.68;100.00
48404;BME280;34202;52.536;6.042;2024-03-23T10:30:27;100832.44;;;7.89;100.00
48404;BME280;34202;52.536;6.042;2024-03-23T10:35:28;100834.81;;;8.07;100.00
48404;BME280;34202;52.536;6.042;2024-03-23T10:40:29;100834.55;;;8.11;100.00
48404;BME280;34202;52.536;6.042;2024-03-23T10:45:30;100837.05;;;8.06;100.00
48404;BME280;34202;52.536;6.042;2024-03-23T10:50:31;100839.39;;;8.00;100.00
48404;BME280;34202;52.536;6.042;2024-03-23T10:55:32;100833.65;;;8.00;100.00
48404;BME280;34202;52.536;6.042;2024-03-23T11:00:34;100828.48;;;8.22;100.00
48404;BME280;34202;52.536;6.042;2024-03-23T11:05:35;100821.23;;;8.45;100.00
48404;BME280;34202;52.536;6.042;2024-03-23T11:10:35;100829.08;;;8.59;100.00
48404;BME280;34202;52.536;6.042;2024-03-23T11:15:36;100833.28;;;8.62;100.00
48404;BME280;34202;52.536;6.042;2024-03-23T11:20:37;100830.34;;;8.73;100.00
48404;BME280;34202;52.536;6.042;2024-03-23T11:25:38;100830.65;;;8.85;100.00
48404;BME280;34202;52.536;6.042;2024-03-23T11:30:39;100831.30;;;8.94;100.00
48404;BME280;34202;52.536;6.042;2024-03-23T11:35:40;100827.46;;;9.06;100.00
48404;BME280;34202;52.536;6.042;2024-03-23T11:40:43;100830.64;;;9.11;100.00
48404;BME280;34202;52.536;6.042;2024-03-23T11:45:51;100834.31;;;9.13;100.00
48404;BME280;34202;52.536;6.042;2024-03-23T11:50:57;100838.98;;;9.24;100.00
48404;BME280;34202;52.536;6.042;2024-03-23T11:55:59;100837.61;;;9.41;100.00
48404;BME280;34202;52.536;6.042;2024-03-23T12:01:04;100832.67;;;9.67;100.00
48404;BME280;34202;52.536;6.042;2024-03-23T12:06:05;100822.38;;;9.99;100.00
48404;BME280;34202;52.536;6.042;2024-03-23T12:11:09;100820.52;;;10.25;100.00
48404;BME280;34202;52.536;6.042;2024-03-23T12:16:19;100829.64;;;10.15;100.00
48404;BME280;34202;52.536;6.042;2024-03-23T12:21:20;100816.14;;;9.82;100.00
48404;BME280;34202;52.536;6.042;2024-03-23T12:26:22;100814.20;;;9.61;100.00
48404;BME280;34202;52.536;6.042;2024-03-23T12:31:23;100812.21;;;9.54;100.00
48404;BME280;34202;52.536;6.042;2024-03-23T12:36:24;100814.26;;;9.51;100.00
48404;BME280;34202;52.536;6.042;2024-03-23T12:41:25;100813.27;;;9.40;100.00
48404;BME280;34202;52.536;6.042;2024-03-23T12:46:25;100819.05;;;9.29;100.00
48404;BME280;34202;52.536;6.042;2024-03-23T12:51:25;100820.09;;;9.13;100.00
48404;BME280;34202;52.536;6.042;2024-03-23T12:56:26;100812.96;;;8.99;100.00
48404;BME280;34202;52.536;6.042;2024-03-23T13:01:28;100806.72;;;8.86;100.00
48404;BME280;34202;52.536;6.042;2024-03-23T13:06:28;100799.42;;;8.86;100.00
48404;BME280;34202;52.536;6.042;2024-03-23T13:11:34;100789.52;;;8.98;100.00
48404;BME280;34202;52.536;6.042;2024-03-23T13:16:34;100790.69;;;9.09;100.00
48404;BME280;34202;52.536;6.042;2024-03-23T13:21:34;100806.44;;;9.19;100.00
48404;BME280;34202;52.536;6.042;2024-03-23T13:26:35;100827.80;;;9.05;100.00
48404;BME280;34202;52.536;6.042;2024-03-23T13:31:35;100827.86;;;8.71;100.00
48404;BME280;34202;52.536;6.042;2024-03-23T13:36:35;100826.45;;;8.47;100.00
48404;BME280;34202;52.536;6.042;2024-03-23T13:41:39;100815.77;;;8.29;100.00
48404;BME280;34202;52.536;6.042;2024-03-23T13:46:41;100807.95;;;8.29;100.00
48404;BME280;34202;52.536;6.042;2024-03-23T13:51:47;100805.01;;;8.29;100.00
48404;BME280;34202;52.536;6.042;2024-03-23T13:56:49;100793.06;;;8.30;100.00
48404;BME280;34202;52.536;6.042;2024-03-23T14:01:50;100790.98;;;8.41;100.00
48404;BME280;34202;52.536;6.042;2024-03-23T14:06:51;100789.83;;;8.56;100.00
48404;BME280;34202;52.536;6.042;2024-03-23T14:11:51;100791.47;;;8.49;100.00
48404;BME280;34202;52.536;6.042;2024-03-23T14:16:52;100784.75;;;8.31;100.00
48404;BME280;34202;52.536;6.042;2024-03-23T14:21:53;100793.16;;;8.15;100.00
48404;BME280;34202;52.536;6.042;2024-03-23T14:26:54;100780.25;;;7.98;100.00
48404;BME280;34202;52.536;6.042;2024-03-23T14:31:54;100772.48;;;7.89;100.00
48404;BME280;34202;52.536;6.042;2024-03-23T14:36:55;100768.64;;;7.88;100.00
48404;BME280;34202;52.536;6.042;2024-03-23T14:41:55;100757.91;;;7.99;100.00
48404;BME280;34202;52.536;6.042;2024-03-23T14:46:56;100764.11;;;8.07;100.00
48404;BME280;34202;52.536;6.042;2024-03-23T14:51:56;100781.69;;;8.01;100.00
48404;BME280;34202;52.536;6.042;2024-03-23T14:56:57;100764.45;;;7.86;100.00
48404;BME280;34202;52.536;6.042;2024-03-23T15:01:58;100759.08;;;7.85;100.00
48404;BME280;34202;52.536;6.042;2024-03-23T15:06:58;100753.63;;;7.91;100.00
48404;BME280;34202;52.536;6.042;2024-03-23T15:11:59;100741.42;;;7.98;100.00
48404;BME280;34202;52.536;6.042;2024-03-23T15:16:59;100739.41;;;8.02;100.00
48404;BME280;34202;52.536;6.042;2024-03-23T15:22:00;100747.77;;;8.05;100.00
48404;BME280;34202;52.536;6.042;2024-03-23T15:27:00;100775.41;;;8.00;100.00
48404;BME280;34202;52.536;6.042;2024-03-23T15:32:01;100773.77;;;7.74;100.00
48404;BME280;34202;52.536;6.042;2024-03-23T15:37:01;100753.45;;;7.61;100.00
48404;BME280;34202;52.536;6.042;2024-03-23T15:42:02;100752.70;;;7.57;100.00
48404;BME280;34202;52.536;6.042;2024-03-23T15:47:04;100760.20;;;7.51;100.00
48404;BME280;34202;52.536;6.042;2024-03-23T15:52:05;100742.88;;;7.40;100.00
48404;BME280;34202;52.536;6.042;2024-03-23T15:57:06;100741.30;;;7.29;100.00
48404;BME280;34202;52.536;6.042;2024-03-23T16:02:07;100738.61;;;7.24;100.00
48404;BME280;34202;52.536;6.042;2024-03-23T16:07:07;100735.47;;;7.23;100.00
48404;BME280;34202;52.536;6.042;2024-03-23T16:12:08;100733.95;;;7.25;100.00
48404;BME280;34202;52.536;6.042;2024-03-23T16:17:08;100730.54;;;7.28;100.00
48404;BME280;34202;52.536;6.042;2024-03-23T16:22:08;100730.11;;;7.33;100.00
48404;BME280;34202;52.536;6.042;2024-03-23T16:27:09;100715.95;;;7.36;100.00
48404;BME280;34202;52.536;6.042;2024-03-23T16:32:09;100713.77;;;7.39;100.00
48404;BME280;34202;52.536;6.042;2024-03-23T16:37:09;100708.39;;;7.38;100.00
48404;BME280;34202;52.536;6.042;2024-03-23T16:42:10;100704.88;;;7.35;100.00
48404;BME280;34202;52.536;6.042;2024-03-23T16:47:11;100708.84;;;7.34;100.00
48404;BME280;34202;52.536;6.042;2024-03-23T16:52:11;100698.77;;;7.32;100.00
48404;BME280;34202;52.536;6.042;2024-03-23T16:57:12;100702.39;;;7.31;100.00
48404;BME280;34202;52.536;6.042;2024-03-23T17:02:12;100730.93;;;7.30;100.00
48404;BME280;34202;52.536;6.042;2024-03-23T17:07:13;100724.70;;;7.21;100.00
48404;BME280;34202;52.536;6.042;2024-03-23T17:12:13;100718.92;;;7.08;100.00
48404;BME280;34202;52.536;6.042;2024-03-23T17:17:13;100717.10;;;6.94;100.00
48404;BME280;34202;52.536;6.042;2024-03-23T17:22:14;100714.83;;;6.85;100.00
48404;BME280;34202;52.536;6.042;2024-03-23T17:27:14;100707.94;;;6.77;100.00
48404;BME280;34202;52.536;6.042;2024-03-23T17:32:14;100701.98;;;6.73;100.00
48404;BME280;34202;52.536;6.042;2024-03-23T17:37:15;100699.02;;;6.71;100.00
48404;BME280;34202;52.536;6.042;2024-03-23T17:42:16;100703.13;;;6.70;100.00
48404;BME280;34202;52.536;6.042;2024-03-23T17:47:17;100706.67;;;6.66;100.00
48404;BME280;34202;52.536;6.042;2024-03-23T17:52:17;100707.95;;;6.61;100.00
48404;BME280;34202;52.536;6.042;2024-03-23T17:57:18;100723.89;;;6.54;100.00
48404;BME280;34202;52.536;6.042;2024-03-23T18:02:19;100736.50;;;6.46;100.00
48404;BME280;34202;52.536;6.042;2024-03-23T18:07:21;100744.68;;;6.32;100.00
48404;BME280;34202;52.536;6.042;2024-03-23T18:12:22;100753.73;;;6.20;100.00
48404;BME280;34202;52.536;6.042;2024-03-23T18:17:23;100742.75;;;6.08;100.00
48404;BME280;34202;52.536;6.042;2024-03-23T18:22:24;100705.84;;;5.97;100.00
48404;BME280;34202;52.536;6.042;2024-03-23T18:27:24;100709.21;;;5.87;100.00
48404;BME280;34202;52.536;6.042;2024-03-23T18:32:25;100709.75;;;5.80;100.00
48404;BME280;34202;52.536;6.042;2024-03-23T18:37:25;100709.16;;;5.77;100.00
48404;BME280;34202;52.536;6.042;2024-03-23T18:42:25;100698.09;;;5.76;100.00
48404;BME280;34202;52.536;6.042;2024-03-23T18:47:26;100698.01;;;5.73;100.00
48404;BME280;34202;52.536;6.042;2024-03-23T18:52:26;100699.55;;;5.66;100.00
48404;BME280;34202;52.536;6.042;2024-03-23T18:57:27;100697.20;;;5.54;100.00
48404;BME280;34202;52.536;6.042;2024-03-23T19:02:28;100691.92;;;5.43;100.00
48404;BME280;34202;52.536;6.042;2024-03-23T19:07:29;100692.95;;;5.36;100.00
48404;BME280;34202;52.536;6.042;2024-03-23T19:12:30;100705.76;;;5.30;100.00
48404;BME280;34202;52.536;6.042;2024-03-23T19:17:32;100703.61;;;5.28;100.00
48404;BME280;34202;52.536;6.042;2024-03-23T19:22:32;100721.25;;;5.30;100.00
48404;BME280;34202;52.536;6.042;2024-03-23T19:27:32;100735.22;;;5.29;100.00
48404;BME280;34202;52.536;6.042;2024-03-23T19:32:33;100726.12;;;5.24;100.00
48404;BME280;34202;52.536;6.042;2024-03-23T19:37:34;100715.02;;;5.15;100.00
48404;BME280;34202;52.536;6.042;2024-03-23T19:42:34;100702.76;;;5.09;100.00
48404;BME280;34202;52.536;6.042;2024-03-23T19:47:34;100696.09;;;5.04;100.00
48404;BME280;34202;52.536;6.042;2024-03-23T19:52:36;100688.61;;;5.02;100.00
48404;BME280;34202;52.536;6.042;2024-03-23T19:57:36;100676.66;;;5.00;100.00
48404;BME280;34202;52.536;6.042;2024-03-23T20:02:37;100673.66;;;4.97;100.00
48404;BME280;34202;52.536;6.042;2024-03-23T20:07:37;100668.86;;;4.93;100.00
48404;BME280;34202;52.536;6.042;2024-03-23T20:12:38;100656.96;;;4.86;100.00
48404;BME280;34202;52.536;6.042;2024-03-23T20:17:38;100661.92;;;4.78;100.00
48404;BME280;34202;52.536;6.042;2024-03-23T20:22:39;100658.95;;;4.70;100.00
48404;BME280;34202;52.536;6.042;2024-03-23T20:27:39;100650.87;;;4.65;100.00
48404;BME280;34202;52.536;6.042;2024-03-23T20:32:39;100650.77;;;4.60;100.00
48404;BME280;34202;52.536;6.042;2024-03-23T20:37:40;100649.79;;;4.57;100.00
48404;BME280;34202;52.536;6.042;2024-03-23T20:42:41;100645.21;;;4.54;100.00
48404;BME280;34202;52.536;6.042;2024-03-23T20:47:42;100631.73;;;4.52;100.00
48404;BME280;34202;52.536;6.042;2024-03-23T20:52:43;100623.73;;;4.50;100.00
48404;BME280;34202;52.536;6.042;2024-03-23T20:57:43;100618.68;;;4.47;100.00
48404;BME280;34202;52.536;6.042;2024-03-23T21:02:44;100616.84;;;4.43;100.00
48404;BME280;34202;52.536;6.042;2024-03-23T21:07:44;100607.94;;;4.39;100.00
48404;BME280;34202;52.536;6.042;2024-03-23T21:12:45;100606.45;;;4.35;100.00
48404;BME280;34202;52.536;6.042;2024-03-23T21:17:45;100605.32;;;4.32;100.00
48404;BME280;34202;52.536;6.042;2024-03-23T21:22:46;100606.97;;;4.29;100.00
48404;BME280;34202;52.536;6.042;2024-03-23T21:27:47;100600.67;;;4.26;100.00
48404;BME280;34202;52.536;6.042;2024-03-23T21:32:47;100601.63;;;4.23;100.00
48404;BME280;34202;52.536;6.042;2024-03-23T21:37:51;100590.69;;;4.20;100.00
48404;BME280;34202;52.536;6.042;2024-03-23T21:42:51;100574.79;;;4.18;100.00
48404;BME280;34202;52.536;6.042;2024-03-23T21:47:52;100569.77;;;4.17;100.00
48404;BME280;34202;52.536;6.042;2024-03-23T21:52:52;100556.32;;;4.17;100.00
48404;BME280;34202;52.536;6.042;2024-03-23T21:57:54;100541.65;;;4.16;100.00
48404;BME280;34202;52.536;6.042;2024-03-23T22:02:54;100529.92;;;4.15;100.00
48404;BME280;34202;52.536;6.042;2024-03-23T22:07:56;100521.36;;;4.17;100.00
48404;BME280;34202;52.536;6.042;2024-03-23T22:12:56;100511.63;;;4.20;100.00
48404;BME280;34202;52.536;6.042;2024-03-23T22:17:56;100505.19;;;4.24;100.00
48404;BME280;34202;52.536;6.042;2024-03-23T22:22:59;100495.31;;;4.28;100.00
48404;BME280;34202;52.536;6.042;2024-03-23T22:27:59;100482.61;;;4.30;100.00
48404;BME280;34202;52.536;6.042;2024-03-23T22:32:59;100483.90;;;4.34;100.00
48404;BME280;34202;52.536;6.042;2024-03-23T22:38:00;100478.98;;;4.36;100.00
48404;BME280;34202;52.536;6.042;2024-03-23T22:43:02;100474.52;;;4.37;100.00
48404;BME280;34202;52.536;6.042;2024-03-23T22:48:03;100467.55;;;4.40;100.00
48404;BME280;34202;52.536;6.042;2024-03-23T22:53:04;100456.77;;;4.43;100.00
48404;BME280;34202;52.536;6.042;2024-03-23T22:58:05;100450.64;;;4.47;100.00
48404;BME280;34202;52.536;6.042;2024-03-23T23:03:07;100442.09;;;4.50;100.00
48404;BME280;34202;52.536;6.042;2024-03-23T23:08:09;100437.16;;;4.52;100.00
48404;BME280;34202;52.536;6.042;2024-03-23T23:13:10;100431.16;;;4.53;100.00
48404;BME280;34202;52.536;6.042;2024-03-23T23:18:11;100426.20;;;4.54;100.00
48404;BME280;34202;52.536;6.042;2024-03-23T23:23:13;100417.77;;;4.55;100.00
48404;BME280;34202;52.536;6.042;2024-03-23T23:28:14;100407.95;;;4.56;100.00
48404;BME280;34202;52.536;6.042;2024-03-23T23:33:14;100394.01;;;4.56;100.00
48404;BME280;34202;52.536;6.042;2024-03-23T23:38:15;100381.42;;;4.56;100.00
48404;BME280;34202;52.536;6.042;2024-03-23T23:43:15;100375.38;;;4.55;100.00
48404;BME280;34202;52.536;6.042;2024-03-23T23:48:15;100368.15;;;4.56;100.00
48404;BME280;34202;52.536;6.042;2024-03-23T23:53:16;100366.81;;;4.58;100.00
48404;BME280;34202;52.536;6.042;2024-03-23T23:58:16;100363.56;;;4.59;100.00
